Terminal Aerodrome Forecast
Issued by NWS Corpus Christi, TX

Home | Current Version | Previous Version | Text Only | Print | Product List | Glossary On
Versions: 1 2 3 4 5 6 7 8 9 10 11 12 13 14 15 16 17 18 19 20 21 22 23 24 25 26
000
FTUS44 KCRP 041100
TAFVCT
TAF
KVCT 041137Z 0412/0512 17010KT 4SM BR BKN006 OVC025
      TEMPO 0412/0415 1SM BR SCT006 OVC025
     FM041500 17014KT P6SM SCT012 OVC025 PROB30 0421/0424 4SM -TSRA
      BR BKN015CB OVC025
     FM050000 14010KT 4SM -SHRA BR OVC007
     FM050300 36021G31KT P6SM -SHRA BKN009 OVC015=

USA.gov is the U.S. government's official web portal to all federal, state and local government web resources and services.